Sagittarian — WCY5210 — position and weather

sailwx.info

Track history (hours):
 
Tides and Currents Weather Stations Pressure Air Temp Water Temp Dewpoint Dewpoint Depression Visibility Wind Speed Wind Dir Waves Ship Positions

Sagittarian

Owner: TAURUS MARINE, SAN FRANCISCO, CA. More information available from US FCC via Universal Licensing System and Coast Guard Vessel Documentation Center.

Last reported at 2016-Jun-26 17:26 UTC. Time now 2016-Jun-27 02:21 UTC.
Position N 37°46' W 122°23'.

; draft 3 m.

Type: Towing. MMSI: 366969510.

Date/timePositionNaut miles runAvg speedWind from/ knotsBaromVisibWave heightAir tempDewpointWater temp
2016-Jun-26 17:26N 37°46' W 122°23'5 5.3
2016-Jun-26 16:34N 37°49' W 122°28'3 2.6
2016-Jun-26 15:34N 37°49' W 122°31'8 3.7
2016-Jun-26 13:30N 37°55' W 122°25'8 8.8
2016-Jun-26 12:34N 37°47' W 122°23'0 0.0
2016-Jun-26 02:11N 37°46' W 122°23'4 6.6
2016-Jun-26 01:33N 37°50' W 122°24'4 3.0
2016-Jun-26 00:11N 37°54' W 122°25'5 7.4
2016-Jun-25 23:33N 37°50' W 122°23'4 3.6
2016-Jun-25 22:33N 37°46' W 122°23'0 0.0
2016-Jun-25 02:33N 37°46' W 122°23'0 0.1
2016-Jun-25 01:33N 37°47' W 122°23'0 0.0
2016-Jun-24 14:33N 37°47' W 122°23'4 2.1
2016-Jun-24 12:33N 37°50' W 122°26'12 2.2
2016-Jun-24 07:09N 38°01' W 122°22'7 2.8
2016-Jun-24 04:33N 38°04' W 122°13'10 3.0
2016-Jun-24 01:13N 37°60' W 122°25'6 9.3
2016-Jun-24 00:33N 38°03' W 122°18'2 0.6
2016-Jun-23 20:29N 38°04' W 122°15'14 4.6
2016-Jun-23 17:26N 37°51' W 122°23'4 2.9
2016-Jun-23 16:11N 37°49' W 122°19'2 3.3
2016-Jun-23 15:26N 37°50' W 122°22'12 3.1
2016-Jun-23 11:33N 38°02' W 122°22'13 8.8
2016-Jun-23 10:08N 38°03' W 122°06'3 4.9
2016-Jun-23 09:32N 38°02' W 122°10'5 0.3
2016-Jun-22 19:24N 38°05' W 122°15'7 7.2
2016-Jun-22 18:25N 38°03' W 122°06'4 4.4
2016-Jun-22 17:33N 38°03' W 122°11'5 5.3
2016-Jun-22 16:33N 38°03' W 122°18'12 3.6
2016-Jun-22 13:12N 37°53' W 122°24'6 8.9
2016-Jun-22 12:34N 37°47' W 122°23'3 2.9
2016-Jun-22 11:33N 37°48' W 122°19'2 2.3
2016-Jun-22 10:33N 37°47' W 122°22'1 0.1
2016-Jun-21 18:09N 37°46' W 122°23'7 4.2
2016-Jun-21 16:34N 37°49' W 122°31'6 5.5
2016-Jun-21 15:22N 37°54' W 122°26'0 0.1
2016-Jun-21 14:32N 37°54' W 122°26'2 1.2
2016-Jun-21 13:16N 37°55' W 122°25'7 9.5
2016-Jun-21 12:33N 37°49' W 122°23'3 3.2
2016-Jun-21 11:34N 37°48' W 122°19'1 1.1
2016-Jun-21 10:32N 37°48' W 122°21'0 0.0
2016-Jun-21 09:33N 37°48' W 122°21'3 0.2
2016-Jun-20 18:33N 37°47' W 122°23'0 0.1
2016-Jun-20 17:15N 37°46' W 122°23'0 0.0
2016-Jun-20 16:34N 37°46' W 122°23'3 3.4
2016-Jun-20 15:33N 37°44' W 122°20'1 0.8
2016-Jun-20 14:34N 37°44' W 122°19'1 0.7
2016-Jun-20 13:33N 37°44' W 122°20'3 3.3
2016-Jun-20 12:34N 37°47' W 122°23'0 0.0
2016-Jun-20 11:34N 37°46' W 122°23'0 0.0
2016-Jun-20 09:13N 37°46' W 122°23'14 8.4
2016-Jun-20 07:32N 38°01' W 122°24'7 6.9
2016-Jun-20 06:33N 38°03' W 122°16'0 0.3
2016-Jun-20 05:33N 38°04' W 122°15'0 0.0
2016-Jun-19 13:33N 38°03' W 122°16'0 0.3
2016-Jun-19 12:33N 38°03' W 122°16'3 3.0
2016-Jun-19 11:33N 38°04' W 122°12'2 0.7
2016-Jun-19 09:30N 38°03' W 122°11'0 0.0
2016-Jun-18 16:08N 38°03' W 122°11'3 5.1
2016-Jun-18 15:33N 38°04' W 122°15'13 3.1
2016-Jun-18 11:32N 37°55' W 122°26'0 0.0
2016-Jun-18 10:33N 37°55' W 122°26'3 2.8
2016-Jun-18 09:33N 37°52' W 122°25'4 4.2
2016-Jun-18 08:33N 37°49' W 122°28'2 1.5
2016-Jun-18 07:33N 37°49' W 122°30'1 0.6
2016-Jun-18 06:33N 37°49' W 122°31'1 1.2
2016-Jun-18 05:33N 37°49' W 122°29'6 1.4
2016-Jun-18 01:14N 37°54' W 122°25'710.2
2016-Jun-18 00:33N 37°47' W 122°23'1 0.0
2016-Jun-17 05:33N 37°48' W 122°23'7 3.2
2016-Jun-17 03:25N 37°54' W 122°25'4 4.9
2016-Jun-17 02:33N 37°50' W 122°24'  
Track history (hours):
 
Tides and Currents Weather Stations Pressure Air Temp Water Temp Dewpoint Dewpoint Depression Visibility Wind Speed Wind Dir Waves Ship Positions

Sagittarian

Owner: TAURUS MARINE, SAN FRANCISCO, CA. More information available from US FCC via Universal Licensing System and Coast Guard Vessel Documentation Center.

Last reported at 2016-Jun-26 17:26 UTC. Time now 2016-Jun-27 02:21 UTC.
Position N 37°46' W 122°23'.

; draft 3 m.

Type: Towing. MMSI: 366969510.

Date/timePositionNaut miles runAvg speedWind from/ knotsBaromVisibWave heightAir tempDewpointWater temp
2016-Jun-26 17:26N 37°46' W 122°23'5 5.3
2016-Jun-26 16:34N 37°49' W 122°28'3 2.6
2016-Jun-26 15:34N 37°49' W 122°31'8 3.7
2016-Jun-26 13:30N 37°55' W 122°25'8 8.8
2016-Jun-26 12:34N 37°47' W 122°23'0 0.0
2016-Jun-26 02:11N 37°46' W 122°23'4 6.6
2016-Jun-26 01:33N 37°50' W 122°24'4 3.0
2016-Jun-26 00:11N 37°54' W 122°25'5 7.4
2016-Jun-25 23:33N 37°50' W 122°23'4 3.6
2016-Jun-25 22:33N 37°46' W 122°23'0 0.0
2016-Jun-25 02:33N 37°46' W 122°23'0 0.1
2016-Jun-25 01:33N 37°47' W 122°23'0 0.0
2016-Jun-24 14:33N 37°47' W 122°23'4 2.1
2016-Jun-24 12:33N 37°50' W 122°26'12 2.2
2016-Jun-24 07:09N 38°01' W 122°22'7 2.8
2016-Jun-24 04:33N 38°04' W 122°13'10 3.0
2016-Jun-24 01:13N 37°60' W 122°25'6 9.3
2016-Jun-24 00:33N 38°03' W 122°18'2 0.6
2016-Jun-23 20:29N 38°04' W 122°15'14 4.6
2016-Jun-23 17:26N 37°51' W 122°23'4 2.9
2016-Jun-23 16:11N 37°49' W 122°19'2 3.3
2016-Jun-23 15:26N 37°50' W 122°22'12 3.1
2016-Jun-23 11:33N 38°02' W 122°22'13 8.8
2016-Jun-23 10:08N 38°03' W 122°06'3 4.9
2016-Jun-23 09:32N 38°02' W 122°10'5 0.3
2016-Jun-22 19:24N 38°05' W 122°15'7 7.2
2016-Jun-22 18:25N 38°03' W 122°06'4 4.4
2016-Jun-22 17:33N 38°03' W 122°11'5 5.3
2016-Jun-22 16:33N 38°03' W 122°18'12 3.6
2016-Jun-22 13:12N 37°53' W 122°24'6 8.9
2016-Jun-22 12:34N 37°47' W 122°23'3 2.9
2016-Jun-22 11:33N 37°48' W 122°19'2 2.3
2016-Jun-22 10:33N 37°47' W 122°22'1 0.1
2016-Jun-21 18:09N 37°46' W 122°23'7 4.2
2016-Jun-21 16:34N 37°49' W 122°31'6 5.5
2016-Jun-21 15:22N 37°54' W 122°26'0 0.1
2016-Jun-21 14:32N 37°54' W 122°26'2 1.2
2016-Jun-21 13:16N 37°55' W 122°25'7 9.5
2016-Jun-21 12:33N 37°49' W 122°23'3 3.2
2016-Jun-21 11:34N 37°48' W 122°19'1 1.1
2016-Jun-21 10:32N 37°48' W 122°21'0 0.0
2016-Jun-21 09:33N 37°48' W 122°21'3 0.2
2016-Jun-20 18:33N 37°47' W 122°23'0 0.1
2016-Jun-20 17:15N 37°46' W 122°23'0 0.0
2016-Jun-20 16:34N 37°46' W 122°23'3 3.4
2016-Jun-20 15:33N 37°44' W 122°20'1 0.8
2016-Jun-20 14:34N 37°44' W 122°19'1 0.7
2016-Jun-20 13:33N 37°44' W 122°20'3 3.3
2016-Jun-20 12:34N 37°47' W 122°23'0 0.0
2016-Jun-20 11:34N 37°46' W 122°23'0 0.0
2016-Jun-20 09:13N 37°46' W 122°23'14 8.4
2016-Jun-20 07:32N 38°01' W 122°24'7 6.9
2016-Jun-20 06:33N 38°03' W 122°16'0 0.3
2016-Jun-20 05:33N 38°04' W 122°15'0 0.0
2016-Jun-19 13:33N 38°03' W 122°16'0 0.3
2016-Jun-19 12:33N 38°03' W 122°16'3 3.0
2016-Jun-19 11:33N 38°04' W 122°12'2 0.7
2016-Jun-19 09:30N 38°03' W 122°11'0 0.0
2016-Jun-18 16:08N 38°03' W 122°11'3 5.1
2016-Jun-18 15:33N 38°04' W 122°15'13 3.1
2016-Jun-18 11:32N 37°55' W 122°26'0 0.0
2016-Jun-18 10:33N 37°55' W 122°26'3 2.8
2016-Jun-18 09:33N 37°52' W 122°25'4 4.2
2016-Jun-18 08:33N 37°49' W 122°28'2 1.5
2016-Jun-18 07:33N 37°49' W 122°30'1 0.6
2016-Jun-18 06:33N 37°49' W 122°31'1 1.2
2016-Jun-18 05:33N 37°49' W 122°29'6 1.4
2016-Jun-18 01:14N 37°54' W 122°25'710.2
2016-Jun-18 00:33N 37°47' W 122°23'1 0.0
2016-Jun-17 05:33N 37°48' W 122°23'7 3.2
2016-Jun-17 03:25N 37°54' W 122°25'4 4.9
2016-Jun-17 02:33N 37°50' W 122°24'  

Dump ship's entire track history